createdAt,value
2023-04-30T00:02:19.384Z,2.10
2023-04-30T00:05:09.013Z,2.33
2023-04-30T00:07:58.197Z,2.10
2023-04-30T00:10:47.653Z,2.60
2023-04-30T00:13:36.968Z,2.30
2023-04-30T00:16:26.455Z,2.25
2023-04-30T00:19:15.750Z,2.15
2023-04-30T00:22:06.611Z,2.60
2023-04-30T00:24:56.010Z,2.30
2023-04-30T00:27:45.306Z,2.60
2023-04-30T00:30:34.551Z,2.40
2023-04-30T00:33:23.930Z,2.60
2023-04-30T00:36:13.882Z,2.63
2023-04-30T00:39:03.493Z,2.42
2023-04-30T00:41:52.690Z,2.38
2023-04-30T00:44:41.949Z,2.50
2023-04-30T00:47:33.125Z,2.88
2023-04-30T00:50:25.226Z,2.47
2023-04-30T00:53:14.623Z,2.35
2023-04-30T00:56:04.724Z,2.20
2023-04-30T00:58:58.089Z,2.30
2023-04-30T01:01:47.503Z,2.40
2023-04-30T01:04:37.611Z,3.17
2023-04-30T01:07:29.441Z,2.30
2023-04-30T01:10:18.852Z,2.50
2023-04-30T01:13:31.390Z,2.85
2023-04-30T01:16:25.990Z,2.50
2023-04-30T01:19:45.604Z,2.42
2023-04-30T01:22:57.114Z,2.58
2023-04-30T01:25:53.906Z,2.60
2023-04-30T01:28:45.938Z,2.50
2023-04-30T01:34:24.611Z,2.30
2023-04-30T01:37:26.218Z,2.47
2023-04-30T01:40:25.749Z,2.40
2023-04-30T01:43:36.787Z,2.40
2023-04-30T01:46:30.809Z,2.30
2023-04-30T01:49:29.828Z,2.30
2023-04-30T01:52:49.147Z,2.53
2023-04-30T01:56:03.457Z,2.60
2023-04-30T01:58:54.428Z,2.30
2023-04-30T02:01:43.956Z,2.20
2023-04-30T02:04:33.789Z,2.40
2023-04-30T02:07:39.333Z,2.05
2023-04-30T02:10:30.654Z,2.05
2023-04-30T02:13:20.037Z,2.38
2023-04-30T02:16:09.574Z,2.10
2023-04-30T02:18:58.987Z,2.40
2023-04-30T02:21:48.226Z,2.00
2023-04-30T02:24:37.695Z,2.72
2023-04-30T02:27:28.033Z,2.30
2023-04-30T02:30:17.463Z,2.47
2023-04-30T02:33:09.125Z,2.20
2023-04-30T02:36:00.323Z,2.45
2023-04-30T02:38:49.591Z,2.15
2023-04-30T02:41:39.266Z,2.30
2023-04-30T02:44:28.796Z,2.30
2023-04-30T02:47:18.154Z,2.58
2023-04-30T02:50:08.077Z,2.35
2023-04-30T02:52:57.496Z,2.35
2023-04-30T02:55:47.256Z,2.65
2023-04-30T02:58:37.047Z,2.50
2023-04-30T03:01:26.366Z,2.38
2023-04-30T03:04:15.863Z,2.20
2023-04-30T03:07:05.744Z,2.30
2023-04-30T03:09:57.061Z,2.50
2023-04-30T03:12:46.399Z,2.17
2023-04-30T03:15:35.719Z,2.20
2023-04-30T03:18:24.995Z,1.83
2023-04-30T03:21:14.424Z,2.30
2023-04-30T03:24:03.610Z,2.17
2023-04-30T03:26:53.133Z,2.10
2023-04-30T03:29:42.342Z,2.10
2023-04-30T03:32:31.797Z,2.08
2023-04-30T03:35:21.448Z,2.00
2023-04-30T03:38:10.956Z,2.40
2023-04-30T03:41:00.212Z,2.00
2023-04-30T03:43:49.493Z,2.10
2023-04-30T03:46:38.670Z,2.20
2023-04-30T03:49:28.061Z,2.20
2023-04-30T03:52:17.437Z,2.30
2023-04-30T03:55:08.394Z,2.20
2023-04-30T03:57:57.716Z,2.35
2023-04-30T04:00:47.525Z,2.13
2023-04-30T04:03:37.401Z,1.92
2023-04-30T04:06:28.077Z,2.28
2023-04-30T04:09:17.330Z,2.03
2023-04-30T04:12:07.820Z,2.38
2023-04-30T04:14:57.713Z,2.33
2023-04-30T04:17:47.414Z,2.20
2023-04-30T04:20:36.717Z,2.00
2023-04-30T04:23:26.061Z,2.33
2023-04-30T04:26:16.013Z,2.20
2023-04-30T04:29:06.099Z,2.38
2023-04-30T04:31:56.579Z,2.00
2023-04-30T04:34:46.950Z,2.45
2023-04-30T04:37:36.706Z,2.03
2023-04-30T04:40:26.121Z,2.25
2023-04-30T04:43:15.669Z,2.30
2023-04-30T04:46:06.317Z,2.13
2023-04-30T04:48:55.690Z,2.20
2023-04-30T04:51:44.953Z,2.38
2023-04-30T04:54:34.337Z,2.25
2023-04-30T04:57:23.974Z,2.15
2023-04-30T05:00:14.186Z,2.08
2023-04-30T05:03:04.286Z,2.10
2023-04-30T05:05:53.742Z,2.13
2023-04-30T05:08:43.050Z,2.20
2023-04-30T05:11:32.302Z,2.05
2023-04-30T05:14:22.307Z,2.10
2023-04-30T05:17:11.537Z,2.30
2023-04-30T05:20:01.054Z,2.08
2023-04-30T05:22:50.452Z,2.50
2023-04-30T05:25:39.941Z,2.40
2023-04-30T05:28:29.190Z,2.10
2023-04-30T05:31:19.537Z,2.40
2023-04-30T05:34:10.126Z,2.00
2023-04-30T05:36:59.424Z,2.10
2023-04-30T05:39:49.026Z,2.28
2023-04-30T05:42:39.405Z,2.15
2023-04-30T05:45:28.948Z,2.10
2023-04-30T05:48:18.292Z,2.45
2023-04-30T05:51:08.248Z,2.15
2023-04-30T05:53:58.645Z,2.30
2023-04-30T05:56:47.962Z,2.10
2023-04-30T05:59:37.252Z,2.20
2023-04-30T06:02:26.775Z,2.17
2023-04-30T06:05:16.495Z,2.15
2023-04-30T06:08:05.861Z,2.00
2023-04-30T06:10:55.137Z,2.40
2023-04-30T06:13:44.562Z,2.05
2023-04-30T06:16:34.225Z,2.00
2023-04-30T06:19:23.601Z,2.00
2023-04-30T06:22:12.864Z,2.10
2023-04-30T06:25:02.107Z,2.30
2023-04-30T06:27:52.792Z,2.30
2023-04-30T06:30:42.418Z,2.47
2023-04-30T06:33:31.636Z,2.00
2023-04-30T06:36:21.395Z,2.40
2023-04-30T06:39:10.806Z,2.22
2023-04-30T06:41:59.958Z,2.15
2023-04-30T06:44:50.488Z,2.22
2023-04-30T06:47:39.805Z,2.30
2023-04-30T06:50:29.175Z,2.17
2023-04-30T06:53:18.490Z,2.17
2023-04-30T06:56:08.135Z,2.30
2023-04-30T06:58:57.349Z,2.10
2023-04-30T07:01:46.682Z,2.22
2023-04-30T07:04:35.932Z,2.10
2023-04-30T07:07:25.353Z,2.05
2023-04-30T07:10:14.624Z,2.00
2023-04-30T07:13:04.123Z,2.38
2023-04-30T07:15:53.816Z,2.20
2023-04-30T07:18:43.125Z,2.00
2023-04-30T07:21:33.739Z,2.05
2023-04-30T07:24:23.189Z,2.30
2023-04-30T07:27:12.395Z,2.42
2023-04-30T07:30:02.010Z,2.20
2023-04-30T07:32:51.446Z,2.10
2023-04-30T07:35:40.923Z,2.38
2023-04-30T07:38:30.458Z,2.10
2023-04-30T07:41:19.956Z,2.10
2023-04-30T07:44:09.175Z,2.05
2023-04-30T07:46:58.540Z,2.17
2023-04-30T07:49:51.105Z,2.30
2023-04-30T07:55:29.134Z,2.10
2023-04-30T07:58:18.418Z,2.40
2023-04-30T08:01:07.699Z,2.20
2023-04-30T08:03:57.134Z,2.30
2023-04-30T08:06:46.724Z,2.38
2023-04-30T08:09:36.106Z,2.10
2023-04-30T08:12:25.390Z,2.20
2023-04-30T08:15:14.704Z,2.10
2023-04-30T08:18:04.995Z,2.08
2023-04-30T08:20:54.334Z,2.10
2023-04-30T08:23:43.715Z,2.30
2023-04-30T08:26:33.235Z,2.28
2023-04-30T08:29:22.547Z,2.05
2023-04-30T08:32:12.341Z,2.00
2023-04-30T08:35:01.932Z,2.00
2023-04-30T08:37:51.599Z,2.08
2023-04-30T08:43:36.711Z,2.10
2023-04-30T08:46:27.051Z,2.10
2023-04-30T08:49:16.437Z,2.20
2023-04-30T08:52:05.926Z,2.20
2023-04-30T08:54:57.838Z,2.05
2023-04-30T08:57:47.178Z,2.30
2023-04-30T09:00:39.966Z,2.10
2023-04-30T09:03:29.575Z,2.13
2023-04-30T09:06:19.202Z,2.13
2023-04-30T09:09:14.106Z,2.10
2023-04-30T09:12:21.490Z,2.10
2023-04-30T09:15:11.861Z,2.40
2023-04-30T09:18:19.475Z,2.30
2023-04-30T09:21:10.061Z,2.20
2023-04-30T09:24:04.891Z,2.30
2023-04-30T09:26:55.462Z,2.40
2023-04-30T09:29:44.695Z,2.30
2023-04-30T09:32:33.940Z,2.35
2023-04-30T09:35:34.348Z,2.22
2023-04-30T09:38:32.610Z,2.28
2023-04-30T09:41:27.785Z,2.10
2023-04-30T09:44:37.788Z,2.50
2023-04-30T09:47:34.612Z,2.08
2023-04-30T09:50:27.920Z,2.10
2023-04-30T09:53:20.420Z,2.35
2023-04-30T09:56:11.357Z,2.30
2023-04-30T09:59:03.459Z,2.30
2023-04-30T10:01:54.675Z,2.30
2023-04-30T10:04:46.042Z,2.00
2023-04-30T10:07:39.660Z,2.30
2023-04-30T10:10:30.612Z,2.60
2023-04-30T10:13:22.154Z,2.30
2023-04-30T10:16:20.683Z,2.40
2023-04-30T10:19:16.897Z,2.35
2023-04-30T10:22:06.492Z,2.50
2023-04-30T10:24:55.955Z,2.30
2023-04-30T10:27:45.286Z,2.47
2023-04-30T10:30:36.407Z,2.33
2023-04-30T10:33:39.941Z,2.30
2023-04-30T10:36:39.720Z,2.30
2023-04-30T10:39:30.016Z,2.50
2023-04-30T10:42:19.503Z,2.50
2023-04-30T10:45:12.312Z,2.25
2023-04-30T10:48:04.233Z,2.30
2023-04-30T10:50:56.549Z,2.57
2023-04-30T10:53:46.690Z,2.50
2023-04-30T10:56:36.623Z,2.58
2023-04-30T10:59:26.018Z,2.55
2023-04-30T11:02:20.816Z,2.40
2023-04-30T11:05:12.653Z,2.60
2023-04-30T11:08:02.426Z,2.60
2023-04-30T11:11:02.760Z,2.63
2023-04-30T11:14:02.495Z,2.50
2023-04-30T11:16:54.808Z,2.30
2023-04-30T11:19:49.744Z,2.38
2023-04-30T11:22:40.433Z,2.35
2023-04-30T11:25:45.266Z,2.80
2023-04-30T11:28:36.854Z,2.30
2023-04-30T11:31:35.831Z,2.40
2023-04-30T11:34:26.396Z,2.63
2023-04-30T11:37:22.399Z,2.80
2023-04-30T11:40:14.336Z,2.35
2023-04-30T11:43:03.634Z,2.60
2023-04-30T11:46:13.485Z,2.60
2023-04-30T11:49:02.856Z,2.58
2023-04-30T11:51:52.889Z,2.70
2023-04-30T11:54:42.230Z,2.38
2023-04-30T11:57:41.762Z,2.58
2023-04-30T12:00:32.949Z,2.80
2023-04-30T12:03:22.329Z,2.42
2023-04-30T12:06:26.172Z,2.70
2023-04-30T12:09:15.586Z,2.80
2023-04-30T12:12:05.128Z,2.70
2023-04-30T12:14:54.357Z,2.58
2023-04-30T12:17:44.208Z,2.50
2023-04-30T12:20:34.319Z,2.50
2023-04-30T12:23:23.806Z,2.50
2023-04-30T12:26:13.165Z,2.88
2023-04-30T12:29:04.456Z,2.85
2023-04-30T12:31:55.296Z,2.70
2023-04-30T12:34:49.745Z,2.70
2023-04-30T12:37:44.391Z,2.70
2023-04-30T12:40:34.326Z,2.67
2023-04-30T12:43:23.691Z,3.13
2023-04-30T12:46:13.347Z,2.50
2023-04-30T12:49:02.823Z,2.70
2023-04-30T12:51:52.229Z,2.75
2023-04-30T12:54:41.925Z,2.70
2023-04-30T12:57:31.481Z,2.60
2023-04-30T13:00:20.638Z,2.70
2023-04-30T13:03:10.146Z,2.88
2023-04-30T13:05:59.927Z,2.55
2023-04-30T13:08:58.392Z,2.80
2023-04-30T13:11:48.733Z,2.88
2023-04-30T13:14:38.103Z,2.40
2023-04-30T13:17:27.527Z,2.60
2023-04-30T13:20:18.018Z,2.70
2023-04-30T13:23:07.795Z,2.80
2023-04-30T13:25:57.356Z,2.63
2023-04-30T13:28:46.606Z,2.58
2023-04-30T13:31:36.077Z,2.22
2023-04-30T13:34:25.528Z,2.50
2023-04-30T13:37:14.842Z,2.42
2023-04-30T13:40:05.105Z,2.20
2023-04-30T13:42:55.682Z,2.33
2023-04-30T13:45:44.982Z,2.30
2023-04-30T13:48:34.250Z,2.30
2023-04-30T13:51:23.489Z,2.25
2023-04-30T13:54:12.874Z,2.50
2023-04-30T13:57:02.186Z,2.25
2023-04-30T13:59:51.955Z,2.20
2023-04-30T14:02:41.374Z,2.20
2023-04-30T14:05:30.744Z,2.65
2023-04-30T14:08:22.615Z,2.40
2023-04-30T14:11:12.729Z,2.40
2023-04-30T14:14:02.033Z,2.42
2023-04-30T14:16:51.515Z,2.55
2023-04-30T14:19:40.879Z,2.30
2023-04-30T14:22:30.293Z,2.70
2023-04-30T14:25:19.685Z,2.13
2023-04-30T14:28:08.972Z,2.88
2023-04-30T14:30:58.245Z,2.60
2023-04-30T14:33:47.589Z,2.60
2023-04-30T14:36:39.246Z,2.50
2023-04-30T14:39:29.147Z,2.30
2023-04-30T14:42:18.540Z,2.40
2023-04-30T14:45:08.882Z,2.35
2023-04-30T14:47:58.200Z,2.60
2023-04-30T14:50:47.604Z,2.58
2023-04-30T14:53:36.913Z,2.72
2023-04-30T14:56:26.538Z,2.70
2023-04-30T14:59:16.024Z,2.40
2023-04-30T15:02:05.497Z,2.65
2023-04-30T15:04:54.789Z,2.40
2023-04-30T15:07:44.227Z,2.83
2023-04-30T15:10:33.755Z,2.60
2023-04-30T15:13:23.117Z,2.80
2023-04-30T15:16:13.399Z,2.95
2023-04-30T15:19:02.724Z,2.67
2023-04-30T15:21:52.270Z,2.42
2023-04-30T15:24:41.567Z,2.75
2023-04-30T15:27:33.199Z,2.50
2023-04-30T15:30:23.203Z,2.25
2023-04-30T15:33:13.770Z,2.60
2023-04-30T15:36:03.126Z,2.70
2023-04-30T15:38:52.490Z,2.50
2023-04-30T15:41:41.804Z,2.28
2023-04-30T15:44:31.245Z,2.30
2023-04-30T15:47:23.226Z,2.67
2023-04-30T15:50:13.497Z,2.40
2023-04-30T15:53:02.920Z,2.10
2023-04-30T15:55:52.311Z,2.30
2023-04-30T15:58:41.699Z,2.47
2023-04-30T16:01:31.268Z,2.70
2023-04-30T16:04:20.658Z,2.67
2023-04-30T16:07:10.879Z,2.28
2023-04-30T16:10:01.875Z,2.25
2023-04-30T16:12:51.679Z,2.55
2023-04-30T16:15:40.989Z,2.35
2023-04-30T16:18:30.936Z,2.22
2023-04-30T16:21:20.374Z,2.42
2023-04-30T16:24:11.476Z,2.30
2023-04-30T16:27:02.767Z,2.63
2023-04-30T16:29:52.155Z,2.55
2023-04-30T16:32:41.607Z,2.50
2023-04-30T16:35:30.940Z,2.60
2023-04-30T16:38:20.394Z,2.70
2023-04-30T16:41:10.007Z,2.53
2023-04-30T16:44:00.319Z,2.10
2023-04-30T16:46:50.221Z,2.63
2023-04-30T16:49:39.526Z,2.75
2023-04-30T16:52:29.749Z,2.53
2023-04-30T16:55:19.194Z,2.42
2023-04-30T16:58:08.461Z,2.50
2023-04-30T17:00:57.745Z,2.10
2023-04-30T17:03:47.461Z,2.90
2023-04-30T17:06:37.804Z,2.65
2023-04-30T17:09:27.321Z,2.50
2023-04-30T17:12:16.908Z,2.72
2023-04-30T17:15:06.610Z,2.17
2023-04-30T17:17:55.995Z,2.40
2023-04-30T17:20:47.461Z,2.70
2023-04-30T17:23:36.858Z,2.45
2023-04-30T17:26:26.201Z,2.40
2023-04-30T17:29:15.748Z,2.45
2023-04-30T17:32:05.566Z,2.78
2023-04-30T17:34:55.259Z,2.30
2023-04-30T17:37:44.481Z,2.70
2023-04-30T17:40:34.309Z,2.70
2023-04-30T17:43:23.668Z,2.33
2023-04-30T17:46:13.111Z,2.42
2023-04-30T17:49:02.748Z,2.28
2023-04-30T17:51:51.993Z,2.38
2023-04-30T17:54:41.321Z,2.33
2023-04-30T17:57:30.596Z,2.17
2023-04-30T18:00:19.803Z,2.30
2023-04-30T18:03:09.315Z,2.47
2023-04-30T18:05:58.639Z,2.10
2023-04-30T18:08:48.106Z,2.20
2023-04-30T18:11:37.375Z,2.25
2023-04-30T18:14:26.937Z,2.58
2023-04-30T18:17:19.388Z,1.98
2023-04-30T18:20:09.448Z,2.30
2023-04-30T18:22:58.820Z,2.20
2023-04-30T18:25:48.698Z,2.17
2023-04-30T18:28:38.925Z,2.17
2023-04-30T18:31:29.620Z,2.08
2023-04-30T18:34:18.950Z,2.13
2023-04-30T18:37:10.593Z,2.00
2023-04-30T18:40:00.453Z,2.22
2023-04-30T18:42:49.865Z,2.00
2023-04-30T18:45:39.865Z,2.15
2023-04-30T18:48:29.324Z,2.20
2023-04-30T18:51:18.563Z,1.92
2023-04-30T18:54:07.897Z,2.25
2023-04-30T18:56:57.544Z,2.33
2023-04-30T18:59:46.800Z,2.00
2023-04-30T19:02:37.162Z,1.90
2023-04-30T19:05:26.606Z,1.92
2023-04-30T19:08:16.266Z,1.83
2023-04-30T19:11:05.582Z,1.90
2023-04-30T19:13:54.865Z,2.05
2023-04-30T19:16:45.553Z,1.70
2023-04-30T19:19:35.074Z,2.00
2023-04-30T19:22:24.888Z,2.10
2023-04-30T19:25:14.252Z,2.03
2023-04-30T19:28:03.640Z,1.95
2023-04-30T19:30:55.343Z,2.10
2023-04-30T19:33:45.132Z,2.30
2023-04-30T19:36:34.613Z,2.35
2023-04-30T19:39:24.231Z,2.08
2023-04-30T19:42:13.479Z,2.00
2023-04-30T19:45:02.725Z,2.00
2023-04-30T19:47:52.610Z,1.98
2023-04-30T19:50:48.717Z,1.98
2023-04-30T19:53:38.020Z,2.03
2023-04-30T19:56:27.651Z,2.03
2023-04-30T19:59:16.989Z,1.90
2023-04-30T20:02:07.133Z,2.40
2023-04-30T20:04:58.209Z,2.00
2023-04-30T20:07:47.509Z,1.88
2023-04-30T20:10:39.054Z,2.00
2023-04-30T20:13:28.363Z,1.98
2023-04-30T20:16:20.138Z,1.90
2023-04-30T20:19:09.441Z,1.73
2023-04-30T20:21:58.731Z,2.10
2023-04-30T20:24:49.259Z,2.15
2023-04-30T20:27:38.561Z,1.65
2023-04-30T20:30:27.852Z,1.85
2023-04-30T20:33:17.482Z,2.10
2023-04-30T20:36:06.893Z,1.75
2023-04-30T20:38:57.079Z,1.80
2023-04-30T20:41:49.021Z,2.03
2023-04-30T20:44:38.306Z,2.40
2023-04-30T20:47:27.646Z,1.80
2023-04-30T20:50:17.747Z,1.70
2023-04-30T20:53:08.420Z,1.70
2023-04-30T20:56:01.311Z,1.90
2023-04-30T20:58:50.698Z,1.60
2023-04-30T21:01:40.212Z,1.65
2023-04-30T21:04:29.768Z,1.65
2023-04-30T21:07:19.063Z,1.70
2023-04-30T21:10:12.227Z,1.90
2023-04-30T21:13:01.430Z,2.60
2023-04-30T21:15:54.600Z,2.50
2023-04-30T21:18:45.422Z,2.85
2023-04-30T21:21:35.570Z,2.03
2023-04-30T21:24:24.950Z,2.30
2023-04-30T21:27:14.306Z,3.13
2023-04-30T21:30:04.092Z,4.32
2023-04-30T21:32:59.206Z,2.85
2023-04-30T21:35:48.837Z,3.28
2023-04-30T21:38:39.067Z,2.80
2023-04-30T21:41:29.290Z,3.53
2023-04-30T21:44:18.907Z,3.10
2023-04-30T21:47:11.558Z,3.25
2023-04-30T21:52:49.888Z,2.50
2023-04-30T21:55:39.335Z,2.53
2023-04-30T21:58:28.775Z,2.40
2023-04-30T22:01:19.231Z,2.80
2023-04-30T22:04:08.610Z,2.30
2023-04-30T22:06:58.698Z,2.30
2023-04-30T22:09:48.047Z,2.25
2023-04-30T22:12:37.918Z,2.55
2023-04-30T22:15:31.607Z,3.03
2023-04-30T22:18:30.517Z,3.60
2023-04-30T22:21:19.820Z,4.15
2023-04-30T22:24:09.378Z,4.88
2023-04-30T22:26:58.959Z,4.55
2023-04-30T22:29:51.629Z,4.50
2023-04-30T22:35:30.937Z,3.72
2023-04-30T22:38:21.024Z,4.20
2023-04-30T22:41:10.459Z,5.70
2023-04-30T22:43:59.730Z,5.90
2023-04-30T22:46:49.940Z,3.95
2023-04-30T22:49:39.968Z,3.17
2023-04-30T22:52:31.673Z,2.47
2023-04-30T22:55:21.094Z,2.85
2023-04-30T22:58:10.407Z,2.17
2023-04-30T23:00:59.717Z,2.95
2023-04-30T23:03:49.250Z,3.33
2023-04-30T23:06:38.765Z,3.70
2023-04-30T23:09:28.105Z,2.70
2023-04-30T23:12:17.459Z,2.00
2023-04-30T23:15:07.668Z,2.08
2023-04-30T23:17:57.790Z,1.98
2023-04-30T23:20:47.129Z,2.35
2023-04-30T23:23:36.435Z,2.20
2023-04-30T23:26:25.758Z,2.30
2023-04-30T23:29:15.764Z,2.58
2023-04-30T23:32:05.702Z,2.20
2023-04-30T23:34:55.025Z,2.47
2023-04-30T23:37:44.399Z,2.40
2023-04-30T23:40:35.073Z,2.33
2023-04-30T23:43:26.315Z,2.40
2023-04-30T23:46:17.053Z,2.70
2023-04-30T23:49:06.565Z,5.10
2023-04-30T23:51:55.819Z,2.20
2023-04-30T23:54:45.091Z,1.90
2023-04-30T23:57:34.695Z,1.90
